Time;durP1;ratioP1;P1;durP2;ratioP2;P2;SDS_P1;SDS_P2;PMS_P1;PMS_P2;Temp;Humidity;BMP_temperature;BMP_pressure;BME280_temperature;BME280_humidity;BME280_pressure;Samples;Min_cycle;Max_cycle;Signal;HPM_P1;HPM_P2
2022/01/31 00:00:09;;;;;;;13.27;3.83;;;6.00;99.90;;;;;;5053712;28;20025;-33
2022/01/31 00:02:35;;;;;;;14.35;3.35;;;6.00;99.90;;;;;;5053528;28;20352;-31
2022/01/31 00:05:02;;;;;;;12.57;4.43;;;6.00;99.90;;;;;;5053413;28;20063;-36
2022/01/31 00:07:27;;;;;;;22.27;3.38;;;6.00;99.90;;;;;;5053742;28;20024;-37
2022/01/31 00:09:53;;;;;;;22.50;4.50;;;6.00;99.90;;;;;;5053444;28;20021;-37
2022/01/31 00:12:20;;;;;;;21.35;4.00;;;6.10;99.90;;;;;;5053632;28;20466;-41
2022/01/31 00:14:49;;;;;;;13.00;2.95;;;6.00;99.90;;;;;;5053319;28;20156;-34
2022/01/31 00:17:15;;;;;;;13.02;2.78;;;6.00;99.90;;;;;;5053439;28;20029;-37
2022/01/31 00:19:43;;;;;;;17.90;3.40;;;6.00;99.90;;;;;;5053259;28;20530;-34
2022/01/31 00:22:10;;;;;;;14.60;3.77;;;6.10;99.90;;;;;;5053537;28;20405;-30
2022/01/31 00:24:36;;;;;;;15.30;2.95;;;6.00;99.90;;;;;;5053254;28;20027;-35
2022/01/31 00:27:04;;;;;;;14.65;4.18;;;6.00;99.90;;;;;;5053120;28;20039;-33
2022/01/31 00:29:29;;;;;;;9.10;3.17;;;6.00;99.90;;;;;;5052992;28;20099;-34
2022/01/31 00:31:55;;;;;;;13.52;3.58;;;5.90;99.90;;;;;;5053097;28;20044;-37
2022/01/31 00:34:21;;;;;;;14.88;3.45;;;5.90;99.90;;;;;;5052965;28;20101;-38
2022/01/31 00:36:47;;;;;;;26.42;4.88;;;5.90;99.90;;;;;;5052820;28;20115;-36
2022/01/31 00:39:13;;;;;;;12.27;3.92;;;5.80;99.90;;;;;;5052938;28;20021;-34
2022/01/31 00:41:39;;;;;;;12.55;3.65;;;5.80;99.90;;;;;;5053143;28;20548;-34
2022/01/31 00:46:43;;;;;;;14.32;3.67;;;5.70;99.90;;;;;;5053242;28;20033;-34
2022/01/31 00:49:16;;;;;;;12.98;3.40;;;5.70;99.90;;;;;;5052497;28;20029;-34
2022/01/31 00:51:42;;;;;;;12.23;4.47;;;5.60;99.90;;;;;;5052669;28;20033;-33
2022/01/31 00:54:08;;;;;;;14.77;4.43;;;5.60;99.90;;;;;;5052664;28;20155;-36
2022/01/31 00:56:33;;;;;;;20.17;4.93;;;5.50;99.90;;;;;;5052893;28;20036;-42
2022/01/31 00:58:59;;;;;;;18.63;4.22;;;5.40;99.90;;;;;;5052628;28;20024;-35
2022/01/31 01:01:24;;;;;;;9.57;4.22;;;5.40;99.90;;;;;;5052937;28;20035;-33
2022/01/31 01:03:50;;;;;;;17.70;5.25;;;5.40;99.90;;;;;;5052435;28;20048;-34
2022/01/31 01:06:15;;;;;;;15.82;4.38;;;5.50;99.90;;;;;;5052780;28;20060;-55
2022/01/31 01:08:41;;;;;;;19.65;5.20;;;5.50;99.90;;;;;;5051171;28;20044;-34
2022/01/31 01:11:08;;;;;;;12.52;4.90;;;5.50;99.90;;;;;;5051988;28;20107;-37
2022/01/31 01:13:34;;;;;;;12.45;5.00;;;5.40;99.90;;;;;;5052544;28;20044;-31
2022/01/31 01:16:00;;;;;;;27.02;4.80;;;5.40;99.90;;;;;;5052676;28;20040;-33
2022/01/31 01:18:25;;;;;;;15.48;5.28;;;5.40;99.90;;;;;;5052383;28;20029;-32
2022/01/31 01:20:51;;;;;;;12.38;4.60;;;5.40;99.90;;;;;;5052495;28;20103;-38
2022/01/31 01:23:16;;;;;;;19.75;5.53;;;5.40;99.90;;;;;;5052365;28;20033;-36
2022/01/31 01:25:42;;;;;;;10.55;5.00;;;5.40;99.90;;;;;;5052453;28;20025;-33
2022/01/31 01:28:08;;;;;;;15.88;4.78;;;5.40;99.90;;;;;;5052621;28;20511;-36
2022/01/31 01:30:34;;;;;;;20.48;5.13;;;5.50;99.90;;;;;;5052323;28;20029;-37
2022/01/31 01:35:31;;;;;;;17.52;4.53;;;5.50;99.90;;;;;;5052590;28;20061;-32
2022/01/31 01:37:59;;;;;;;14.07;4.63;;;5.50;99.90;;;;;;5052461;28;20439;-31
2022/01/31 01:40:25;;;;;;;18.23;4.43;;;5.50;99.90;;;;;;5052543;28;20477;-33
2022/01/31 01:42:50;;;;;;;15.85;4.97;;;5.50;99.90;;;;;;5052194;28;20028;-31
2022/01/31 01:45:17;;;;;;;27.13;5.68;;;5.50;99.90;;;;;;5052439;28;20489;-32
2022/01/31 01:47:42;;;;;;;10.93;4.57;;;5.50;99.90;;;;;;5052195;28;20029;-37
2022/01/31 01:50:08;;;;;;;13.88;4.20;;;5.50;99.90;;;;;;5052087;28;20032;-33
2022/01/31 01:52:34;;;;;;;10.20;3.92;;;5.50;99.90;;;;;;5052159;28;20117;-35
2022/01/31 01:55:00;;;;;;;10.40;4.25;;;5.50;99.90;;;;;;5052190;28;20075;-33
2022/01/31 01:57:27;;;;;;;17.80;4.20;;;5.50;99.90;;;;;;5052011;28;20044;-36
2022/01/31 01:59:56;;;;;;;9.75;3.70;;;5.50;99.90;;;;;;5052420;28;20032;-32
2022/01/31 02:02:21;;;;;;;;;;;5.60;99.90;;;;;;5052624;28;20032;-36
2022/01/31 02:04:47;;;;;;;9.20;3.45;;;5.60;99.90;;;;;;5050570;28;19913;-30
2022/01/31 02:07:13;;;;;;;9.13;3.65;;;5.60;99.90;;;;;;5051902;28;20103;-36
2022/01/31 02:09:44;;;;;;;14.55;4.10;;;5.70;99.90;;;;;;5051976;28;20025;-34
2022/01/31 02:12:11;;;;;;;12.05;4.28;;;5.70;99.90;;;;;;5052318;28;20040;-31
2022/01/31 02:14:36;;;;;;;10.52;4.00;;;5.80;99.90;;;;;;5051983;28;20043;-33
2022/01/31 02:17:03;;;;;;;13.48;5.30;;;5.90;99.90;;;;;;5051897;28;20029;-33
2022/01/31 02:19:28;;;;;;;12.75;3.83;;;5.90;99.90;;;;;;5046968;28;20052;-33
2022/01/31 02:21:55;;;;;;;7.38;4.13;;;6.00;99.90;;;;;;5038006;28;20069;-35
2022/01/31 02:24:21;;;;;;;11.73;3.65;;;6.10;99.90;;;;;;5035874;28;20038;-37
2022/01/31 02:26:46;;;;;;;17.58;2.92;;;6.10;99.90;;;;;;5046133;28;20500;-34
2022/01/31 02:29:12;;;;;;;16.38;3.50;;;6.20;99.90;;;;;;5037200;28;20021;-32
2022/01/31 02:31:46;;;;;;;23.13;2.80;;;6.20;99.90;;;;;;5049617;28;20462;-32
2022/01/31 02:34:11;;;;;;;11.73;2.50;;;6.30;99.90;;;;;;5046136;28;20034;-34
2022/01/31 02:36:38;;;;;;;18.58;2.90;;;6.40;99.90;;;;;;5045972;28;20443;-33
2022/01/31 02:39:05;;;;;;;23.60;2.63;;;6.40;99.90;;;;;;5055248;28;20025;-33
2022/01/31 02:41:31;;;;;;;11.45;2.58;;;6.50;99.90;;;;;;5044174;28;20021;-32
2022/01/31 02:43:57;;;;;;;19.80;3.75;;;6.50;99.90;;;;;;5051389;28;20031;-35
2022/01/31 02:46:25;;;;;;;14.88;2.53;;;6.60;99.90;;;;;;5047194;28;20029;-33
2022/01/31 02:48:53;;;;;;;22.20;2.65;;;6.70;99.90;;;;;;5038728;28;20036;-34
2022/01/31 02:51:24;;;;;;;16.15;3.33;;;6.70;99.90;;;;;;5051882;28;20032;-38
2022/01/31 02:53:50;;;;;;;10.45;2.25;;;6.70;99.90;;;;;;5044418;28;20051;-33
2022/01/31 02:56:15;;;;;;;11.82;1.98;;;6.70;99.90;;;;;;5043953;28;20033;-37
2022/01/31 02:58:41;;;;;;;16.77;1.83;;;6.70;99.90;;;;;;5050129;28;20100;-34
2022/01/31 03:01:07;;;;;;;15.35;2.05;;;6.80;99.90;;;;;;5038921;28;20025;-38
2022/01/31 03:03:32;;;;;;;12.27;1.98;;;6.70;99.90;;;;;;5054072;28;20033;-46
2022/01/31 03:05:58;;;;;;;9.00;1.77;;;6.80;99.90;;;;;;5042192;28;20033;-34
2022/01/31 03:08:24;;;;;;;14.45;2.20;;;6.80;99.90;;;;;;5054604;28;20063;-33
2022/01/31 03:10:51;;;;;;;13.63;3.03;;;6.80;99.90;;;;;;5044175;28;20018;-33
2022/01/31 03:13:17;;;;;;;9.45;1.58;;;6.90;99.90;;;;;;5034866;28;20379;-33
2022/01/31 03:15:43;;;;;;;17.63;1.70;;;7.00;99.90;;;;;;5034639;28;20048;-31
2022/01/31 03:18:08;;;;;;;7.28;2.30;;;7.00;99.90;;;;;;5038446;28;20033;-33
2022/01/31 03:20:34;;;;;;;17.70;2.25;;;7.00;99.90;;;;;;5037221;28;20014;-34
2022/01/31 03:23:00;;;;;;;20.20;4.00;;;7.00;99.90;;;;;;5047754;28;20535;-35
2022/01/31 03:25:29;;;;;;;12.52;2.00;;;7.00;99.90;;;;;;5047051;28;20052;-32
2022/01/31 03:27:55;;;;;;;12.25;1.95;;;7.00;99.90;;;;;;5045201;28;20028;-38
2022/01/31 03:30:26;;;;;;;13.05;1.40;;;6.90;99.90;;;;;;5037407;28;20033;-36
2022/01/31 03:32:51;;;;;;;12.90;1.83;;;6.90;99.90;;;;;;5039064;28;20029;-34
2022/01/31 03:35:18;;;;;;;18.48;2.50;;;7.00;99.90;;;;;;5042946;28;20520;-48
2022/01/31 03:37:44;;;;;;;3.97;1.17;;;7.00;99.90;;;;;;5046468;28;20025;-30
2022/01/31 03:40:10;;;;;;;9.27;2.08;;;7.00;99.90;;;;;;5047029;28;20386;-33
2022/01/31 03:42:39;;;;;;;9.52;1.45;;;7.00;99.90;;;;;;5036907;28;20017;-36
2022/01/31 03:45:07;;;;;;;4.45;1.38;;;7.00;99.90;;;;;;5041370;28;20048;-35
2022/01/31 03:47:33;;;;;;;7.82;1.33;;;7.00;99.90;;;;;;5041823;28;20017;-31
2022/01/31 03:49:59;;;;;;;14.20;2.30;;;7.00;99.90;;;;;;5036724;28;20056;-39
2022/01/31 03:52:24;;;;;;;10.27;1.48;;;6.90;99.90;;;;;;5051464;28;20100;-32
2022/01/31 03:54:50;;;;;;;15.32;1.45;;;6.90;99.90;;;;;;5045739;28;20115;-38
2022/01/31 03:57:16;;;;;;;9.50;1.38;;;7.00;99.90;;;;;;5041226;28;20619;-31
2022/01/31 03:59:41;;;;;;;13.50;3.72;;;7.00;99.90;;;;;;5041297;28;20051;-35
2022/01/31 04:02:07;;;;;;;19.95;2.80;;;7.00;99.90;;;;;;5047388;28;20021;-41
2022/01/31 04:04:34;;;;;;;11.40;1.50;;;7.00;99.90;;;;;;5037643;28;20040;-36
2022/01/31 04:07:00;;;;;;;20.25;2.33;;;7.00;99.90;;;;;;5039410;28;20061;-37
2022/01/31 04:09:26;;;;;;;21.50;2.35;;;7.00;99.90;;;;;;5040061;28;20469;-33
2022/01/31 04:11:52;;;;;;;15.85;1.60;;;7.00;99.90;;;;;;5044172;28;20029;-33
2022/01/31 04:14:17;;;;;;;9.40;1.30;;;7.00;99.90;;;;;;5047211;28;20481;-33
2022/01/31 04:16:46;;;;;;;17.63;1.60;;;7.00;99.90;;;;;;5035582;28;20041;-34
2022/01/31 04:19:11;;;;;;;11.32;1.23;;;7.00;99.90;;;;;;5046187;28;20075;-34
2022/01/31 04:21:37;;;;;;;12.43;2.10;;;7.10;99.90;;;;;;5049099;28;20488;-37
2022/01/31 04:24:03;;;;;;;8.75;1.70;;;7.00;99.90;;;;;;5033630;28;20017;-31
2022/01/31 04:26:33;;;;;;;19.52;1.55;;;7.00;99.90;;;;;;5036649;28;20033;-31
2022/01/31 04:29:08;;;;;;;9.20;2.05;;;7.10;99.90;;;;;;5041193;28;20496;-34
2022/01/31 04:34:02;;;;;;;11.57;3.05;;;7.10;99.90;;;;;;5033445;28;20025;-34
2022/01/31 04:36:28;;;;;;;9.43;1.50;;;7.10;99.90;;;;;;5039999;28;20116;-37
2022/01/31 04:38:53;;;;;;;14.48;1.90;;;7.10;99.90;;;;;;5050059;28;20401;-32
2022/01/31 04:41:20;;;;;;;14.60;2.15;;;7.10;99.90;;;;;;5044683;28;20149;-37
2022/01/31 04:43:48;;;;;;;16.23;2.97;;;7.00;99.90;;;;;;5044606;28;20386;-36
2022/01/31 04:46:14;;;;;;;16.25;2.38;;;7.00;99.90;;;;;;5044242;28;20037;-32
2022/01/31 04:48:43;;;;;;;15.05;2.20;;;7.00;99.90;;;;;;5034486;28;20110;-30
2022/01/31 04:51:10;;;;;;;13.85;2.25;;;7.00;99.90;;;;;;5046186;28;20493;-38
2022/01/31 04:53:37;;;;;;;14.25;1.67;;;7.10;99.90;;;;;;5033959;28;20028;-34
2022/01/31 04:56:03;;;;;;;8.68;3.08;;;7.10;99.90;;;;;;5036284;28;20035;-31
2022/01/31 04:58:30;;;;;;;12.00;1.63;;;7.10;99.90;;;;;;5035212;28;20480;-30
2022/01/31 05:00:55;;;;;;;15.80;2.53;;;7.00;99.90;;;;;;5033716;28;20049;-33
2022/01/31 05:03:21;;;;;;;20.23;1.52;;;7.00;99.90;;;;;;5042701;28;20126;-36
2022/01/31 05:05:47;;;;;;;5.97;1.08;;;6.90;99.90;;;;;;5032517;28;20567;-36
2022/01/31 05:08:13;;;;;;;11.00;1.05;;;6.40;99.90;;;;;;5044050;28;20025;-44
2022/01/31 05:10:45;;;;;;;5.88;0.73;;;5.80;99.90;;;;;;5041598;28;20108;-34
2022/01/31 05:13:13;;;;;;;5.88;1.00;;;5.30;99.90;;;;;;5049339;28;20477;-38
2022/01/31 05:15:39;;;;;;;5.38;1.02;;;5.10;99.90;;;;;;5049366;28;20056;-32
2022/01/31 05:18:04;;;;;;;11.13;2.22;;;5.00;99.90;;;;;;5048307;28;20035;-47
2022/01/31 05:20:30;;;;;;;3.30;1.02;;;5.00;99.90;;;;;;5035149;28;20478;-34
2022/01/31 05:22:56;;;;;;;9.13;1.40;;;5.10;99.90;;;;;;5038297;28;20021;-31
2022/01/31 05:25:21;;;;;;;12.95;1.38;;;5.00;99.90;;;;;;5037062;28;20045;-35
2022/01/31 05:27:47;;;;;;;27.35;3.05;;;5.10;99.90;;;;;;5040398;28;20528;-33
2022/01/31 05:30:12;;;;;;;10.27;1.92;;;5.10;99.90;;;;;;5034957;28;20083;-34
2022/01/31 05:32:38;;;;;;;18.02;3.45;;;5.30;99.90;;;;;;5047186;28;20064;-35
2022/01/31 05:35:05;;;;;;;16.52;2.97;;;5.30;99.90;;;;;;5046834;28;20040;-35
2022/01/31 05:37:31;;;;;;;18.40;2.08;;;5.30;99.90;;;;;;5038644;28;20493;-33
2022/01/31 05:39:57;;;;;;;13.35;1.70;;;5.40;99.90;;;;;;5050617;28;20025;-33
2022/01/31 05:42:23;;;;;;;29.38;2.65;;;5.40;99.90;;;;;;5035913;28;20037;-33
2022/01/31 05:44:48;;;;;;;8.50;1.92;;;5.50;99.90;;;;;;5033462;28;20105;-35
2022/01/31 05:47:15;;;;;;;24.73;2.70;;;5.60;99.90;;;;;;5051550;28;20033;-33
2022/01/31 05:49:41;;;;;;;15.15;2.00;;;5.60;99.90;;;;;;5041526;28;20061;-36
2022/01/31 05:52:07;;;;;;;9.50;2.15;;;5.70;99.90;;;;;;5041404;28;20064;-30
2022/01/31 05:54:38;;;;;;;19.90;2.50;;;5.80;99.90;;;;;;5041921;28;20057;-37
2022/01/31 05:57:05;;;;;;;17.90;2.75;;;5.70;99.90;;;;;;5048683;28;20112;-32
2022/01/31 05:59:33;;;;;;;51.78;4.20;;;5.70;99.90;;;;;;5038799;28;20543;-35
2022/01/31 06:02:00;;;;;;;19.60;2.80;;;5.80;99.90;;;;;;5041230;28;20082;-38
2022/01/31 06:04:26;;;;;;;19.65;2.42;;;5.80;99.90;;;;;;5037574;28;20046;-35
2022/01/31 06:06:52;;;;;;;28.13;3.13;;;5.70;99.90;;;;;;5038327;28;20358;-44
2022/01/31 06:09:17;;;;;;;20.38;2.58;;;5.80;99.90;;;;;;5035789;28;20029;-39
2022/01/31 06:11:45;;;;;;;21.38;1.95;;;5.70;99.90;;;;;;5046796;28;20095;-30
2022/01/31 06:14:10;;;;;;;19.77;3.00;;;5.70;99.90;;;;;;5040698;28;20555;-35
2022/01/31 06:16:36;;;;;;;17.70;2.28;;;5.60;99.90;;;;;;5051524;28;20069;-35
2022/01/31 06:19:03;;;;;;;16.17;2.05;;;5.60;99.90;;;;;;5037085;28;20398;-35
2022/01/31 06:21:28;;;;;;;17.38;2.53;;;5.50;99.90;;;;;;5044515;28;20032;-34
2022/01/31 06:23:54;;;;;;;27.38;3.20;;;5.50;99.90;;;;;;5042922;28;20108;-36
2022/01/31 06:26:21;;;;;;;16.05;2.83;;;5.50;99.90;;;;;;5040886;28;20060;-29
2022/01/31 06:28:49;;;;;;;22.90;3.05;;;5.50;99.90;;;;;;5055247;28;20087;-33
2022/01/31 06:31:16;;;;;;;17.45;2.67;;;5.50;99.90;;;;;;5053654;28;20497;-36
2022/01/31 06:33:42;;;;;;;14.40;2.53;;;5.50;99.90;;;;;;5042305;28;20473;-35
2022/01/31 06:36:08;;;;;;;8.88;2.80;;;5.60;99.90;;;;;;5054577;28;20025;-36
2022/01/31 06:38:35;;;;;;;20.95;2.70;;;5.60;99.90;;;;;;5039359;28;20026;-33
2022/01/31 06:41:01;;;;;;;27.85;2.72;;;5.60;99.90;;;;;;5044559;28;20588;-34
2022/01/31 06:43:27;;;;;;;28.80;2.80;;;5.60;99.90;;;;;;5035691;28;20489;-31
2022/01/31 06:45:53;;;;;;;15.93;2.60;;;5.60;99.90;;;;;;5043956;28;20059;-34
2022/01/31 06:48:18;;;;;;;21.67;3.97;;;5.70;99.90;;;;;;5035229;28;20490;-32
2022/01/31 06:50:44;;;;;;;28.38;5.10;;;5.60;99.90;;;;;;5034034;28;20028;-33
2022/01/31 06:53:11;;;;;;;13.10;1.85;;;5.70;99.90;;;;;;5035202;28;20501;-34
2022/01/31 06:55:37;;;;;;;8.80;1.38;;;5.70;99.90;;;;;;5040484;28;20028;-32
2022/01/31 06:58:03;;;;;;;25.08;1.92;;;5.70;99.90;;;;;;5052799;28;20025;-36
2022/01/31 07:00:29;;;;;;;13.90;2.25;;;5.70;99.90;;;;;;5044190;28;20024;-36
2022/01/31 07:02:55;;;;;;;24.08;3.22;;;5.60;99.90;;;;;;5051265;28;20548;-32
2022/01/31 07:05:21;;;;;;;14.52;1.75;;;5.60;99.90;;;;;;5045497;28;20037;-34
2022/01/31 07:07:47;;;;;;;23.45;3.60;;;5.60;99.90;;;;;;5048394;28;20111;-38
2022/01/31 07:10:14;;;;;;;17.38;2.90;;;5.60;99.90;;;;;;5044448;28;20433;-35
2022/01/31 07:12:59;;;;;;;14.13;2.03;;;5.70;99.90;;;;;;5041543;28;20509;-36
2022/01/31 07:15:25;;;;;;;15.55;2.08;;;5.70;99.90;;;;;;5034919;28;20482;-36
2022/01/31 07:17:50;;;;;;;19.35;3.28;;;5.60;99.90;;;;;;5043302;28;20044;-34
2022/01/31 07:20:36;;;;;;;18.50;2.38;;;5.50;99.90;;;;;;5035516;28;20473;-33
2022/01/31 07:23:08;;;;;;;16.55;2.67;;;5.50;99.90;;;;;;5051045;28;20116;-35
2022/01/31 07:25:37;;;;;;;10.02;2.38;;;5.50;99.90;;;;;;5038568;28;20068;-34
2022/01/31 07:28:06;;;;;;;17.25;1.90;;;5.50;99.90;;;;;;5044482;28;20377;-33
2022/01/31 07:30:32;;;;;;;20.17;2.38;;;5.50;99.90;;;;;;5049625;28;20025;-33
2022/01/31 07:32:58;;;;;;;28.58;2.13;;;5.50;99.90;;;;;;5035570;28;20064;-37
2022/01/31 07:35:24;;;;;;;17.10;2.65;;;5.40;99.90;;;;;;5042317;28;20034;-36
2022/01/31 07:37:50;;;;;;;18.75;2.97;;;5.50;99.90;;;;;;5044055;28;20436;-32
2022/01/31 07:40:15;;;;;;;24.92;4.00;;;5.50;99.90;;;;;;5037437;28;20021;-34
2022/01/31 07:42:41;;;;;;;17.35;2.70;;;5.50;99.90;;;;;;5035071;28;20104;-31
2022/01/31 07:45:07;;;;;;;18.38;2.08;;;5.50;99.90;;;;;;5036422;28;20026;-32
2022/01/31 07:47:33;;;;;;;22.33;3.20;;;5.60;99.90;;;;;;5041511;28;20036;-34
2022/01/31 07:49:58;;;;;;;24.02;3.17;;;5.70;99.90;;;;;;5041115;28;20416;-33
2022/01/31 07:52:25;;;;;;;24.58;3.00;;;5.70;99.90;;;;;;5041797;28;20029;-32
2022/01/31 07:54:50;;;;;;;36.42;4.38;;;5.70;99.90;;;;;;5049784;28;20025;-35
2022/01/31 07:57:19;;;;;;;24.48;2.60;;;5.70;99.90;;;;;;5041438;28;20032;-32
2022/01/31 07:59:45;;;;;;;25.48;3.13;;;5.80;99.90;;;;;;5042630;28;20144;-32
2022/01/31 08:02:11;;;;;;;17.15;1.67;;;5.70;99.90;;;;;;5035027;28;20096;-31
2022/01/31 08:04:37;;;;;;;18.85;2.53;;;5.80;99.90;;;;;;5034231;28;20048;-32
2022/01/31 08:07:02;;;;;;;16.08;2.45;;;5.80;99.90;;;;;;5033405;28;20034;-35
2022/01/31 08:09:28;;;;;;;27.50;3.75;;;5.80;99.90;;;;;;5033429;28;20029;-34
2022/01/31 08:11:54;;;;;;;23.23;2.78;;;5.80;99.90;;;;;;5033739;28;20029;-38
2022/01/31 08:14:20;;;;;;;22.63;2.72;;;5.80;99.90;;;;;;5033644;28;20025;-35
2022/01/31 08:16:46;;;;;;;29.40;4.50;;;5.80;99.90;;;;;;5033555;28;20502;-29
2022/01/31 08:19:11;;;;;;;16.98;2.13;;;5.80;99.90;;;;;;5032723;28;20079;-31
2022/01/31 08:21:37;;;;;;;24.40;3.58;;;5.80;99.90;;;;;;5033173;28;20025;-34
2022/01/31 08:24:04;;;;;;;17.95;2.35;;;5.80;99.90;;;;;;5033229;28;20051;-30
2022/01/31 08:29:25;;;;;;;18.35;3.67;;;5.80;99.90;;;;;;5033384;28;20460;-30
2022/01/31 08:31:53;;;;;;;24.38;2.90;;;5.70;99.90;;;;;;5033053;28;20064;-31
2022/01/31 08:34:24;;;;;;;23.33;2.78;;;5.70;99.90;;;;;;5033020;28;20025;-30
2022/01/31 08:36:51;;;;;;;24.35;2.63;;;5.70;99.90;;;;;;5033233;28;20030;-30
2022/01/31 08:39:19;;;;;;;35.88;3.63;;;5.70;99.90;;;;;;5033000;28;20030;-32
2022/01/31 08:41:49;;;;;;;7.53;1.58;;;5.70;99.90;;;;;;5032856;28;20047;-34
2022/01/31 08:44:18;;;;;;;25.02;2.00;;;5.70;99.90;;;;;;5032985;28;20030;-34
2022/01/31 08:46:47;;;;;;;24.25;2.97;;;5.70;99.90;;;;;;5033125;28;20398;-37
2022/01/31 08:49:14;;;;;;;30.23;2.65;;;5.80;99.90;;;;;;5032879;28;20472;-31
2022/01/31 08:51:42;;;;;;;34.05;3.35;;;5.80;99.90;;;;;;5032833;28;20389;-39
2022/01/31 08:54:08;;;;;;;28.00;4.35;;;5.80;99.90;;;;;;5032842;28;20100;-31
2022/01/31 08:56:40;;;;;;;24.15;3.80;;;5.70;99.90;;;;;;5032668;28;20026;-36
2022/01/31 08:59:14;;;;;;;16.08;2.15;;;5.80;99.90;;;;;;5033041;28;20029;-36
2022/01/31 09:01:43;;;;;;;23.42;3.42;;;5.70;99.90;;;;;;5031427;28;20433;-36
2022/01/31 09:04:09;;;;;;;21.95;2.83;;;5.80;99.90;;;;;;5032712;28;20025;-44
2022/01/31 09:06:36;;;;;;;22.45;3.35;;;5.80;99.90;;;;;;5033019;28;20530;-35
2022/01/31 09:09:24;;;;;;;19.38;2.42;;;5.70;99.90;;;;;;5032879;28;20061;-32
2022/01/31 09:11:49;;;;;;;25.27;3.38;;;5.60;99.90;;;;;;5033000;28;20493;-38
2022/01/31 09:14:15;;;;;;;12.80;2.38;;;5.60;99.90;;;;;;5032633;28;20022;-32
2022/01/31 09:16:41;;;;;;;17.95;3.03;;;5.50;99.90;;;;;;5032754;28;20473;-35
2022/01/31 09:19:07;;;;;;;17.23;3.97;;;5.50;99.90;;;;;;5032533;28;20021;-35
2022/01/31 09:21:34;;;;;;;34.45;3.85;;;5.60;99.90;;;;;;5032442;28;20033;-31
2022/01/31 09:23:59;;;;;;;26.77;3.80;;;5.60;99.90;;;;;;5032525;28;20033;-34
2022/01/31 09:26:26;;;;;;;18.27;4.03;;;5.60;99.90;;;;;;5032599;28;20068;-36
2022/01/31 09:28:56;;;;;;;31.52;5.28;;;5.60;99.90;;;;;;5032471;28;20028;-34
2022/01/31 09:31:23;;;;;;;33.10;4.10;;;5.60;99.90;;;;;;5033755;28;20022;-34
2022/01/31 09:33:49;;;;;;;23.50;4.03;;;5.70;99.90;;;;;;5036499;28;20068;-34
2022/01/31 09:36:15;;;;;;;31.48;4.18;;;5.60;99.90;;;;;;5036340;28;20472;-38
2022/01/31 09:38:44;;;;;;;42.60;4.57;;;5.70;99.90;;;;;;5036600;28;20132;-36
2022/01/31 09:41:14;;;;;;;28.88;4.45;;;5.70;99.90;;;;;;5036315;28;20544;-34
2022/01/31 09:48:51;;;;;;;40.67;5.18;;;5.70;99.90;;;;;;5036438;28;20112;-36
2022/01/31 09:51:21;;;;;;;60.08;5.85;;;5.80;99.90;;;;;;5036043;28;20167;-36
2022/01/31 09:53:49;;;;;;;39.42;4.20;;;5.80;99.90;;;;;;5036036;28;20025;-34
2022/01/31 09:56:21;;;;;;;39.63;6.13;;;5.90;99.90;;;;;;5036036;28;20535;-35
2022/01/31 09:58:48;;;;;;;36.90;5.88;;;5.90;99.90;;;;;;5036353;28;20044;-33
2022/01/31 10:01:20;;;;;;;27.50;4.35;;;5.90;99.90;;;;;;5036250;28;20061;-32
2022/01/31 10:03:53;;;;;;;43.08;5.97;;;5.90;99.90;;;;;;5035903;28;20434;-34
2022/01/31 10:06:22;;;;;;;45.97;5.45;;;5.90;99.90;;;;;;5035682;28;20056;-36
2022/01/31 10:09:08;;;;;;;42.47;6.47;;;5.90;99.90;;;;;;5036028;28;20547;-34
2022/01/31 10:11:53;;;;;;;37.80;5.00;;;5.90;99.90;;;;;;5035545;28;20041;-29
2022/01/31 10:17:14;;;;;;;27.27;3.95;;;5.90;99.90;;;;;;5035643;28;20119;-34
2022/01/31 10:19:43;;;;;;;23.70;4.07;;;5.90;99.90;;;;;;5035673;28;20030;-31
2022/01/31 10:22:14;;;;;;;22.60;3.70;;;6.00;99.90;;;;;;5035847;28;20057;-32
2022/01/31 10:24:43;;;;;;;22.17;4.53;;;6.00;99.90;;;;;;5035524;28;20112;-30
2022/01/31 10:27:24;;;;;;;23.17;3.55;;;6.10;99.90;;;;;;5035728;28;20029;-31
2022/01/31 10:29:52;;;;;;;26.80;2.83;;;6.10;99.90;;;;;;5035609;28;20035;-33
2022/01/31 10:32:27;;;;;;;22.23;4.68;;;6.00;99.90;;;;;;5035397;28;20065;-32
2022/01/31 10:34:59;;;;;;;21.90;2.88;;;6.00;99.90;;;;;;5035418;28;20441;-34
2022/01/31 10:37:27;;;;;;;23.25;3.47;;;6.00;99.90;;;;;;5033605;28;20049;-33
2022/01/31 10:54:27;;;;;;;37.65;4.50;;;5.80;99.90;;;;;;5035091;28;20033;-34
2022/01/31 10:56:49;;;;;;;28.45;3.75;;;5.70;99.90;;;;;;5034615;28;20465;-35
2022/01/31 10:59:24;;;;;;;30.52;4.03;;;5.60;99.90;;;;;;5034932;28;20026;-38
2022/01/31 11:01:55;;;;;;;34.22;3.90;;;5.60;99.90;;;;;;5034938;28;20060;-33
2022/01/31 11:04:21;;;;;;;21.90;3.92;;;5.60;99.90;;;;;;5034630;28;20033;-31
2022/01/31 11:07:07;;;;;;;47.00;4.60;;;5.70;99.90;;;;;;5034736;28;20041;-34
2022/01/31 11:09:33;;;;;;;54.85;5.13;;;5.70;99.90;;;;;;5034638;28;20108;-33
2022/01/31 11:12:00;;;;;;;45.05;4.57;;;5.70;99.90;;;;;;5034873;28;20112;-35
2022/01/31 11:14:26;;;;;;;34.88;5.82;;;5.70;99.90;;;;;;5034672;28;20556;-32
2022/01/31 11:16:55;;;;;;;32.28;4.60;;;5.60;99.90;;;;;;5034530;28;20489;-35
2022/01/31 11:19:30;;;;;;;35.97;4.47;;;5.60;99.90;;;;;;5034730;28;20104;-37
2022/01/31 11:22:04;;;;;;;33.28;4.65;;;5.70;99.90;;;;;;5034476;28;20482;-35
2022/01/31 11:24:36;;;;;;;47.15;5.18;;;5.70;99.90;;;;;;5034676;28;20082;-37
2022/01/31 11:27:15;;;;;;;31.73;4.80;;;5.70;99.90;;;;;;5034438;28;20021;-38
2022/01/31 11:29:44;;;;;;;40.97;4.70;;;5.70;99.90;;;;;;5034507;28;20497;-32
2022/01/31 11:32:11;;;;;;;21.00;3.60;;;5.70;99.90;;;;;;5034466;28;20540;-36
2022/01/31 11:34:44;;;;;;;34.80;5.25;;;5.70;99.90;;;;;;5034177;28;20022;-34
2022/01/31 11:37:12;;;;;;;30.73;4.28;;;5.70;99.90;;;;;;5034400;28;20561;-35
2022/01/31 11:39:41;;;;;;;37.60;5.20;;;5.70;99.90;;;;;;5034111;28;20037;-32
2022/01/31 11:42:07;;;;;;;26.23;4.00;;;5.70;99.90;;;;;;5034423;28;20034;-33
2022/01/31 11:44:59;;;;;;;40.83;6.15;;;5.70;99.90;;;;;;5034235;28;20029;-34
2022/01/31 11:47:28;;;;;;;25.27;4.80;;;5.70;99.90;;;;;;5033028;28;20052;-37
2022/01/31 11:50:03;;;;;;;19.65;3.78;;;5.70;99.90;;;;;;5033893;28;20474;-31
2022/01/31 11:52:44;;;;;;;43.35;5.65;;;5.70;99.90;;;;;;5034021;28;20441;-32
2022/01/31 11:55:13;;;;;;;40.13;3.75;;;5.70;99.90;;;;;;5033950;28;20034;-30
2022/01/31 11:57:39;;;;;;;39.10;5.25;;;5.70;99.90;;;;;;5034017;28;20474;-32
2022/01/31 12:00:10;;;;;;;31.40;5.05;;;5.70;99.90;;;;;;5033668;28;20024;-34
2022/01/31 12:02:47;;;;;;;54.28;5.35;;;5.70;99.90;;;;;;5033642;28;20033;-37
2022/01/31 12:05:40;;;;;;;43.22;5.25;;;5.70;99.90;;;;;;5033337;28;20073;-31
2022/01/31 12:08:16;;;;;;;32.67;3.47;;;5.80;99.90;;;;;;5033453;28;20049;-34
2022/01/31 12:10:47;;;;;;;49.28;4.82;;;5.70;99.90;;;;;;5033968;28;20493;-36
2022/01/31 12:13:49;;;;;;;54.00;5.72;;;5.70;99.90;;;;;;5033643;28;20080;-33
2022/01/31 12:17:09;;;;;;;31.05;3.90;;;5.70;99.90;;;;;;5031824;28;20021;-33
2022/01/31 12:22:02;;;;;;;53.38;6.80;;;5.80;99.90;;;;;;5033400;28;20030;-32
2022/01/31 12:24:38;;;;;;;33.63;5.82;;;5.80;99.90;;;;;;5016146;28;20021;-42
2022/01/31 12:27:14;;;;;;;29.67;4.65;;;5.90;99.90;;;;;;5033562;28;20062;-34
2022/01/31 12:29:45;;;;;;;51.47;5.63;;;5.90;99.90;;;;;;5033343;28;20375;-48
2022/01/31 12:32:15;;;;;;;36.80;4.82;;;5.90;99.90;;;;;;5033375;28;20508;-44
2022/01/31 12:34:54;;;;;;;28.83;4.60;;;5.90;99.90;;;;;;5033669;28;20389;-47
2022/01/31 12:37:40;;;;;;;36.88;6.00;;;5.90;99.90;;;;;;5033304;28;20029;-34
2022/01/31 12:40:10;;;;;;;43.58;7.32;;;5.90;99.90;;;;;;5033050;28;20068;-31
2022/01/31 12:45:32;;;;;;;37.70;6.00;;;5.90;99.90;;;;;;5033228;28;20088;-36
2022/01/31 12:48:06;;;;;;;52.67;6.63;;;5.90;99.90;;;;;;5032931;28;20509;-36
2022/01/31 12:50:40;;;;;;;40.90;5.45;;;5.90;99.90;;;;;;5033200;28;20486;-36
2022/01/31 12:56:13;;;;;;;33.30;5.78;;;6.00;99.90;;;;;;5032774;28;20346;-34
2022/01/31 12:58:49;;;;;;;27.85;4.20;;;6.00;99.90;;;;;;5032922;28;20027;-30
2022/01/31 13:01:16;;;;;;;37.80;6.32;;;6.00;99.90;;;;;;5033201;28;20504;-32
2022/01/31 13:03:46;;;;;;;31.02;4.88;;;6.10;99.90;;;;;;5032731;28;20528;-29
2022/01/31 13:06:34;;;;;;;58.78;6.07;;;6.10;99.90;;;;;;5031971;28;20041;-33
2022/01/31 13:09:09;;;;;;;34.00;4.72;;;6.20;99.90;;;;;;5032503;28;20037;-32
2022/01/31 13:11:35;;;;;;;41.08;4.60;;;6.20;99.90;;;;;;5032952;28;20474;-32
2022/01/31 13:14:18;;;;;;;38.60;4.72;;;6.20;99.90;;;;;;5032890;28;20478;-33
2022/01/31 13:16:50;;;;;;;33.90;5.38;;;6.30;99.90;;;;;;5032574;28;20120;-33
2022/01/31 13:19:20;;;;;;;28.75;3.55;;;6.20;99.90;;;;;;5032887;28;20033;-38
2022/01/31 13:21:46;;;;;;;40.50;5.43;;;6.10;99.90;;;;;;5032803;28;20040;-31
2022/01/31 13:24:12;;;;;;;28.45;3.90;;;6.10;99.90;;;;;;5032883;28;20428;-33
2022/01/31 13:26:58;;;;;;;32.10;3.95;;;6.20;99.90;;;;;;5032437;28;20033;-32
2022/01/31 13:29:35;;;;;;;30.17;4.18;;;6.20;99.90;;;;;;5032434;28;20037;-30
2022/01/31 13:32:14;;;;;;;29.42;4.72;;;6.30;99.90;;;;;;5032563;28;20029;-34
2022/01/31 13:34:41;;;;;;;19.38;4.00;;;6.40;99.90;;;;;;5032413;28;20029;-34